createdAt,value
2019-02-07T00:00:21.967Z,26.90
2019-02-07T00:02:50.265Z,25.00
2019-02-07T00:05:18.570Z,25.60
2019-02-07T00:07:47.081Z,25.80
2019-02-07T00:10:20.570Z,24.20
2019-02-07T00:12:48.892Z,23.30
2019-02-07T00:15:17.350Z,23.23
2019-02-07T00:17:45.632Z,24.60
2019-02-07T00:20:16.559Z,25.30
2019-02-07T00:22:44.854Z,24.97
2019-02-07T00:25:13.280Z,21.77
2019-02-07T00:27:41.560Z,23.40
2019-02-07T00:30:20.675Z,23.43
2019-02-07T00:32:48.982Z,22.43
2019-02-07T00:35:17.940Z,23.87
2019-02-07T00:37:46.345Z,24.10
2019-02-07T00:40:16.572Z,22.20
2019-02-07T00:42:45.179Z,22.73
2019-02-07T00:45:19.426Z,24.70
2019-02-07T00:47:47.992Z,24.23
2019-02-07T00:50:17.543Z,22.43
2019-02-07T00:52:45.855Z,22.30
2019-02-07T00:55:18.464Z,23.70
2019-02-07T00:57:46.755Z,24.50
2019-02-07T01:00:23.831Z,22.37
2019-02-07T01:02:52.171Z,24.00
2019-02-07T01:05:22.245Z,25.20
2019-02-07T01:07:50.884Z,26.30
2019-02-07T01:10:25.252Z,24.77
2019-02-07T01:12:54.004Z,26.60
2019-02-07T01:15:22.423Z,25.80
2019-02-07T01:17:50.679Z,25.97
2019-02-07T01:20:18.972Z,26.40
2019-02-07T01:22:47.348Z,26.87
2019-02-07T01:25:18.385Z,26.33
2019-02-07T01:27:46.806Z,25.23
2019-02-07T01:30:21.122Z,27.73
2019-02-07T01:32:49.371Z,27.03
2019-02-07T01:35:18.454Z,28.37
2019-02-07T01:37:46.858Z,29.27
2019-02-07T01:40:19.492Z,27.47
2019-02-07T01:42:47.824Z,30.70
2019-02-07T01:45:23.558Z,29.00
2019-02-07T01:47:52.001Z,28.67
2019-02-07T01:50:22.957Z,30.33
2019-02-07T01:52:51.619Z,28.10
2019-02-07T01:55:19.884Z,27.77
2019-02-07T01:57:48.275Z,31.10
2019-02-07T02:00:18.083Z,31.57
2019-02-07T02:02:46.446Z,30.17
2019-02-07T02:05:16.145Z,27.27
2019-02-07T02:07:44.876Z,29.40
2019-02-07T02:10:16.017Z,27.93
2019-02-07T02:12:44.491Z,27.70
2019-02-07T02:15:23.709Z,29.67
2019-02-07T02:17:43.762Z,29.57
2019-02-07T02:20:14.527Z,28.10
2019-02-07T02:22:43.299Z,31.23
2019-02-07T02:25:13.365Z,26.90
2019-02-07T02:27:41.687Z,26.40
2019-02-07T02:30:16.269Z,28.90
2019-02-07T02:32:44.609Z,28.50
2019-02-07T02:35:12.939Z,29.20
2019-02-07T02:37:41.505Z,29.40
2019-02-07T02:40:11.420Z,28.80
2019-02-07T02:42:39.973Z,26.83
2019-02-07T02:45:14.267Z,27.00
2019-02-07T02:47:42.590Z,25.73
2019-02-07T02:50:13.900Z,26.10
2019-02-07T02:52:42.236Z,26.80
2019-02-07T02:55:12.208Z,27.93
2019-02-07T02:57:40.509Z,29.60
2019-02-07T03:00:16.122Z,26.97
2019-02-07T03:02:49.136Z,26.97
2019-02-07T03:05:22.149Z,25.30
2019-02-07T03:07:52.110Z,29.53
2019-02-07T03:10:24.752Z,28.07
2019-02-07T03:12:54.809Z,30.33
2019-02-07T03:15:49.225Z,29.47
2019-02-07T03:18:15.287Z,28.57
2019-02-07T03:20:57.252Z,29.00
2019-02-07T03:23:43.045Z,28.20
2019-02-07T03:26:27.170Z,27.67
2019-02-07T03:29:03.872Z,28.20
2019-02-07T03:31:38.474Z,27.27
2019-02-07T03:34:11.194Z,28.73
2019-02-07T03:36:41.174Z,25.47
2019-02-07T03:39:11.116Z,28.03
2019-02-07T03:41:49.978Z,27.80
2019-02-07T03:44:19.918Z,28.30
2019-02-07T03:46:52.807Z,27.60
2019-02-07T03:49:37.822Z,26.13
2019-02-07T03:52:07.719Z,24.90
2019-02-07T03:54:46.359Z,27.17
2019-02-07T03:57:21.898Z,25.50
2019-02-07T03:59:58.003Z,27.03
2019-02-07T04:02:30.524Z,26.50
2019-02-07T04:05:09.169Z,28.40
2019-02-07T04:07:54.126Z,25.67
2019-02-07T04:10:34.429Z,27.57
2019-02-07T04:13:19.462Z,26.90
2019-02-07T04:15:55.282Z,27.23
2019-02-07T04:18:34.745Z,26.53
2019-02-07T04:21:21.579Z,21.77
2019-02-07T04:23:56.676Z,25.47
2019-02-07T04:26:29.631Z,23.50
2019-02-07T04:29:03.048Z,23.13
2019-02-07T04:31:35.623Z,25.03
2019-02-07T04:34:05.594Z,21.70
2019-02-07T04:36:41.555Z,22.67
2019-02-07T04:39:11.474Z,23.60
2019-02-07T04:41:41.415Z,23.87
2019-02-07T04:44:20.185Z,22.80
2019-02-07T04:46:53.035Z,24.63
2019-02-07T04:49:31.982Z,22.53
2019-02-07T04:52:18.307Z,24.70
2019-02-07T04:54:51.426Z,22.40
2019-02-07T04:57:21.523Z,22.30
2019-02-07T04:59:57.831Z,22.50
2019-02-07T05:02:27.839Z,23.23
2019-02-07T05:05:07.564Z,22.87
2019-02-07T05:07:52.856Z,21.57
2019-02-07T05:10:22.895Z,20.30
2019-02-07T05:12:58.648Z,22.10
2019-02-07T05:15:28.665Z,22.27
2019-02-07T05:18:15.075Z,24.10
2019-02-07T05:20:48.095Z,24.50
2019-02-07T05:23:18.199Z,21.73
2019-02-07T05:25:53.908Z,22.87
2019-02-07T05:28:26.382Z,22.60
2019-02-07T05:30:59.047Z,22.00
2019-02-07T05:33:47.036Z,25.20
2019-02-07T05:36:32.935Z,15.23
2019-02-07T05:39:08.775Z,20.63
2019-02-07T05:41:38.858Z,20.80
2019-02-07T05:44:11.584Z,20.77
2019-02-07T05:46:50.709Z,22.50
2019-02-07T05:49:28.831Z,19.73
2019-02-07T05:52:04.747Z,20.03
2019-02-07T05:54:37.726Z,22.47
2019-02-07T05:57:07.704Z,19.83
2019-02-07T05:59:43.853Z,20.27
2019-02-07T06:02:16.378Z,19.30
2019-02-07T06:04:49.101Z,21.27
2019-02-07T06:07:24.971Z,19.20
2019-02-07T06:10:11.248Z,20.40
2019-02-07T06:12:57.538Z,19.00
2019-02-07T06:15:46.522Z,20.63
2019-02-07T06:18:28.510Z,19.23
2019-02-07T06:21:01.471Z,20.83
2019-02-07T06:23:43.516Z,20.23
2019-02-07T06:26:29.707Z,20.77
2019-02-07T06:29:08.729Z,21.60
2019-02-07T06:31:50.927Z,20.43
2019-02-07T06:34:31.161Z,20.60
2019-02-07T06:37:07.204Z,20.37
2019-02-07T06:39:37.289Z,20.30
2019-02-07T06:42:07.353Z,21.03
2019-02-07T06:44:37.382Z,21.97
2019-02-07T06:47:16.237Z,20.63
2019-02-07T06:49:46.402Z,21.53
2019-02-07T06:52:32.458Z,23.43
2019-02-07T06:55:04.834Z,21.50
2019-02-07T06:57:37.831Z,20.60
2019-02-07T07:00:11.128Z,21.40
2019-02-07T07:02:50.597Z,22.33
2019-02-07T07:05:38.621Z,20.20
2019-02-07T07:08:11.224Z,21.63
2019-02-07T07:10:45.653Z,19.63
2019-02-07T07:13:18.201Z,18.00
2019-02-07T07:15:53.982Z,21.00
2019-02-07T07:18:23.954Z,20.90
2019-02-07T07:21:10.076Z,21.90
2019-02-07T07:23:52.196Z,18.93
2019-02-07T07:26:28.199Z,20.53
2019-02-07T07:29:00.314Z,18.90
2019-02-07T07:31:48.405Z,19.60
2019-02-07T07:34:18.334Z,21.50
2019-02-07T07:36:48.515Z,19.40
2019-02-07T07:39:27.257Z,19.33
2019-02-07T07:42:09.533Z,20.27
2019-02-07T07:44:45.415Z,18.13
2019-02-07T07:47:36.051Z,19.03
2019-02-07T07:50:12.511Z,17.80
2019-02-07T07:52:57.427Z,16.03
2019-02-07T07:55:48.520Z,18.80
2019-02-07T07:58:21.462Z,17.43
2019-02-07T08:00:57.549Z,16.50
2019-02-07T08:03:31.017Z,17.23
2019-02-07T08:06:07.083Z,17.53
2019-02-07T08:08:54.183Z,17.00
2019-02-07T08:11:36.103Z,17.37
2019-02-07T08:14:10.792Z,15.00
2019-02-07T08:16:59.342Z,15.63
2019-02-07T08:19:38.170Z,15.67
2019-02-07T08:22:10.852Z,16.10
2019-02-07T08:24:46.545Z,14.07
2019-02-07T08:27:16.625Z,15.83
2019-02-07T08:29:46.551Z,14.13
2019-02-07T08:32:16.850Z,15.43
2019-02-07T08:34:49.614Z,14.83
2019-02-07T08:37:31.239Z,14.60
2019-02-07T08:40:10.358Z,14.73
2019-02-07T08:42:49.351Z,10.20
2019-02-07T08:45:21.912Z,12.07
2019-02-07T08:47:58.590Z,11.60
2019-02-07T08:50:39.978Z,11.50
2019-02-07T08:53:22.150Z,12.43
2019-02-07T08:55:52.059Z,12.53
2019-02-07T08:58:38.246Z,14.00
2019-02-07T09:01:16.921Z,12.70
2019-02-07T09:03:50.543Z,11.87
2019-02-07T09:06:26.763Z,12.00
2019-02-07T09:08:52.233Z,11.30
2019-02-07T09:11:39.697Z,10.37
2019-02-07T09:14:12.393Z,11.90
2019-02-07T09:16:45.249Z,10.10
2019-02-07T09:19:31.517Z,9.90
2019-02-07T09:22:16.509Z,10.10
2019-02-07T09:24:55.156Z,10.13
2019-02-07T09:27:25.149Z,11.27
2019-02-07T09:30:11.645Z,11.20
2019-02-07T09:32:57.531Z,9.40
2019-02-07T09:35:39.854Z,8.23
2019-02-07T09:38:09.860Z,6.07
2019-02-07T09:40:39.835Z,6.00
2019-02-07T09:43:25.592Z,3.60
2019-02-07T09:46:11.517Z,2.60
2019-02-07T09:48:58.192Z,2.20
2019-02-07T09:51:37.024Z,2.13
2019-02-07T09:54:07.176Z,1.70
2019-02-07T09:56:37.157Z,2.53
2019-02-07T09:59:18.768Z,3.57
2019-02-07T10:01:48.921Z,2.40
2019-02-07T10:04:21.714Z,3.30
2019-02-07T10:07:06.665Z,2.17
2019-02-07T10:09:52.637Z,3.37
2019-02-07T10:12:34.684Z,1.97
2019-02-07T10:15:10.592Z,2.30
2019-02-07T10:17:40.554Z,1.90
2019-02-07T10:20:27.510Z,3.60
2019-02-07T10:22:57.514Z,3.13
2019-02-07T10:25:27.560Z,3.17
2019-02-07T10:28:09.807Z,2.87
2019-02-07T10:30:48.657Z,1.73
2019-02-07T10:33:28.330Z,2.07
2019-02-07T10:36:01.145Z,4.63
2019-02-07T10:38:37.178Z,3.40
2019-02-07T10:41:13.576Z,3.30
2019-02-07T10:43:46.539Z,2.80
2019-02-07T10:46:25.402Z,2.90
2019-02-07T10:48:58.269Z,2.40
2019-02-07T10:51:30.731Z,1.93
2019-02-07T10:54:15.670Z,2.10
2019-02-07T10:56:45.606Z,2.37
2019-02-07T10:59:18.081Z,3.33
2019-02-07T11:01:51.017Z,3.17
2019-02-07T11:04:26.739Z,3.53
2019-02-07T11:06:56.664Z,2.20
2019-02-07T11:09:43.044Z,2.77
2019-02-07T11:12:18.702Z,1.70
2019-02-07T11:15:04.915Z,2.03
2019-02-07T11:17:41.346Z,2.30
2019-02-07T11:20:24.218Z,2.80
2019-02-07T11:22:54.216Z,1.90
2019-02-07T11:25:27.226Z,2.30
2019-02-07T11:28:10.895Z,2.57
2019-02-07T11:30:43.741Z,1.93
2019-02-07T11:33:26.132Z,2.10
2019-02-07T11:35:56.053Z,1.97
2019-02-07T11:38:34.989Z,3.67
2019-02-07T11:41:08.883Z,2.17
2019-02-07T11:43:50.935Z,2.20
2019-02-07T11:46:20.877Z,1.50
2019-02-07T11:49:06.922Z,2.70
2019-02-07T11:51:34.358Z,1.83
2019-02-07T11:54:13.458Z,2.20
2019-02-07T11:56:46.158Z,2.40
2019-02-07T11:59:16.118Z,2.43
2019-02-07T12:02:09.252Z,1.80
2019-02-07T12:04:35.831Z,2.10
2019-02-07T12:07:21.707Z,2.47
2019-02-07T12:09:51.616Z,2.83
2019-02-07T12:12:37.723Z,2.77
2019-02-07T12:15:10.826Z,2.80
2019-02-07T12:17:44.375Z,3.10
2019-02-07T12:20:20.671Z,1.60
2019-02-07T12:23:07.238Z,2.47
2019-02-07T12:25:46.775Z,2.10
2019-02-07T12:28:20.570Z,2.33
2019-02-07T12:30:51.587Z,2.37
2019-02-07T12:33:37.934Z,2.70
2019-02-07T12:36:08.189Z,2.77
2019-02-07T12:38:40.753Z,2.60
2019-02-07T12:41:10.678Z,2.57
2019-02-07T12:43:58.466Z,2.50
2019-02-07T12:46:28.559Z,1.97
2019-02-07T12:49:01.129Z,2.10
2019-02-07T12:51:47.645Z,1.87
2019-02-07T12:54:23.776Z,4.43
2019-02-07T12:57:05.102Z,2.53
2019-02-07T12:59:38.030Z,2.40
2019-02-07T13:02:13.701Z,3.00
2019-02-07T13:04:49.816Z,2.70
2019-02-07T13:07:36.312Z,1.70
2019-02-07T13:10:09.777Z,2.10
2019-02-07T13:12:51.630Z,1.50
2019-02-07T13:15:21.820Z,1.30
2019-02-07T13:17:52.275Z,1.63
2019-02-07T13:20:38.895Z,2.07
2019-02-07T13:23:17.860Z,1.60
2019-02-07T13:25:57.144Z,2.20
2019-02-07T13:28:40.278Z,1.63
2019-02-07T13:31:10.275Z,2.40
2019-02-07T13:33:59.080Z,1.73
2019-02-07T13:36:34.898Z,2.00
2019-02-07T13:39:19.906Z,2.10
2019-02-07T13:41:49.948Z,1.40
2019-02-07T13:44:28.899Z,2.30
2019-02-07T13:47:13.706Z,2.97
2019-02-07T13:49:51.692Z,1.60
2019-02-07T13:52:31.546Z,1.97
2019-02-07T13:55:17.477Z,2.40
2019-02-07T13:57:50.356Z,1.80
2019-02-07T14:00:36.989Z,2.00
2019-02-07T14:03:15.774Z,1.40
2019-02-07T14:05:54.556Z,1.80
2019-02-07T14:08:37.856Z,1.67
2019-02-07T14:10:58.825Z,3.57
2019-02-07T14:13:37.793Z,1.90
2019-02-07T14:16:10.270Z,1.83
2019-02-07T14:18:56.749Z,1.60
2019-02-07T14:21:26.710Z,1.20
2019-02-07T14:23:59.450Z,2.10
2019-02-07T14:26:32.255Z,1.50
2019-02-07T14:29:05.483Z,2.30
2019-02-07T14:31:35.403Z,1.70
2019-02-07T14:34:17.321Z,1.90
2019-02-07T14:36:47.216Z,1.07
2019-02-07T14:39:32.520Z,1.60
2019-02-07T14:42:08.128Z,1.53
2019-02-07T14:44:46.962Z,1.67
2019-02-07T14:47:15.276Z,1.53
2019-02-07T14:49:43.528Z,1.23
2019-02-07T14:52:12.027Z,1.80
2019-02-07T14:54:40.302Z,1.50
2019-02-07T14:57:08.584Z,1.97
2019-02-07T14:59:36.913Z,1.50
2019-02-07T15:02:05.197Z,1.70
2019-02-07T15:04:33.947Z,1.87
2019-02-07T15:07:02.245Z,2.13
2019-02-07T15:09:30.506Z,2.10
2019-02-07T15:11:58.826Z,1.60
2019-02-07T15:14:27.089Z,3.77
2019-02-07T15:16:55.409Z,2.00
2019-02-07T15:19:23.824Z,1.50
2019-02-07T15:21:52.249Z,1.93
2019-02-07T15:24:21.502Z,1.97
2019-02-07T15:26:49.791Z,1.10
2019-02-07T15:29:18.100Z,2.20
2019-02-07T15:31:46.636Z,1.20
2019-02-07T15:34:14.889Z,1.20
2019-02-07T15:36:43.342Z,1.37
2019-02-07T15:39:23.987Z,1.33
2019-02-07T15:41:58.624Z,2.13
2019-02-07T15:44:26.987Z,0.90
2019-02-07T15:46:55.475Z,1.00
2019-02-07T15:49:23.878Z,0.90
2019-02-07T15:51:52.155Z,1.17
2019-02-07T15:54:21.769Z,1.30
2019-02-07T15:56:50.161Z,1.80
2019-02-07T15:59:20.163Z,1.37
2019-02-07T16:01:53.290Z,1.33
2019-02-07T16:04:23.656Z,1.33
2019-02-07T16:06:52.067Z,1.40
2019-02-07T16:09:20.391Z,0.87
2019-02-07T16:11:51.745Z,1.30
2019-02-07T16:14:19.143Z,1.17
2019-02-07T16:16:47.460Z,0.80
2019-02-07T16:19:16.199Z,1.03
2019-02-07T16:21:46.573Z,1.13
2019-02-07T16:24:15.988Z,1.77
2019-02-07T16:26:44.599Z,1.03
2019-02-07T16:29:13.111Z,1.20
2019-02-07T16:31:41.479Z,1.30
2019-02-07T16:34:09.863Z,1.50
2019-02-07T16:36:38.168Z,1.10
2019-02-07T16:39:08.150Z,0.90
2019-02-07T16:41:36.467Z,1.40
2019-02-07T16:44:04.837Z,1.40
2019-02-07T16:46:33.349Z,0.70
2019-02-07T16:49:01.612Z,1.03
2019-02-07T16:51:30.042Z,1.07
2019-02-07T16:53:58.509Z,0.97
2019-02-07T16:56:27.430Z,1.77
2019-02-07T16:58:57.457Z,1.53
2019-02-07T17:01:25.698Z,1.07
2019-02-07T17:04:00.278Z,1.10
2019-02-07T17:09:21.571Z,1.03
2019-02-07T17:11:49.833Z,1.30
2019-02-07T17:14:18.222Z,0.83
2019-02-07T17:16:46.713Z,1.40
2019-02-07T17:19:14.949Z,1.30
2019-02-07T17:21:43.335Z,1.20
2019-02-07T17:24:11.637Z,1.20
2019-02-07T17:26:40.233Z,1.07
2019-02-07T17:29:08.510Z,1.97
2019-02-07T17:31:36.894Z,2.10
2019-02-07T17:34:05.182Z,1.67
2019-02-07T17:36:33.490Z,1.00
2019-02-07T17:39:02.249Z,2.30
2019-02-07T17:41:30.553Z,3.60
2019-02-07T17:43:58.877Z,1.30
2019-02-07T17:46:27.139Z,1.67
2019-02-07T17:48:55.678Z,1.03
2019-02-07T17:51:23.977Z,0.97
2019-02-07T17:53:52.807Z,1.77
2019-02-07T17:56:21.850Z,1.00
2019-02-07T17:58:50.239Z,1.43
2019-02-07T18:01:18.621Z,0.80
2019-02-07T18:03:46.922Z,0.57
2019-02-07T18:06:15.384Z,0.50
2019-02-07T18:08:43.643Z,0.57
2019-02-07T18:11:12.370Z,0.50
2019-02-07T18:13:40.678Z,0.47
2019-02-07T18:16:08.974Z,0.50
2019-02-07T18:18:37.243Z,0.50
2019-02-07T18:21:05.549Z,0.40
2019-02-07T18:23:33.825Z,0.80
2019-02-07T18:26:02.194Z,0.40
2019-02-07T18:28:30.465Z,0.60
2019-02-07T18:30:58.713Z,0.60
2019-02-07T18:33:27.110Z,0.53
2019-02-07T18:35:55.973Z,0.60
2019-02-07T18:38:24.553Z,0.50
2019-02-07T18:40:52.822Z,0.53
2019-02-07T18:43:21.229Z,0.43
2019-02-07T18:45:49.525Z,0.60
2019-02-07T18:48:17.833Z,1.03
2019-02-07T18:50:46.236Z,1.00
2019-02-07T18:53:14.651Z,1.90
2019-02-07T18:55:43.333Z,1.47
2019-02-07T18:58:11.595Z,2.10
2019-02-07T19:00:39.872Z,2.60
2019-02-07T19:03:08.830Z,1.43
2019-02-07T19:05:37.152Z,2.70
2019-02-07T19:08:06.235Z,1.57
2019-02-07T19:10:34.552Z,1.47
2019-02-07T19:13:02.846Z,2.20
2019-02-07T19:15:37.194Z,1.00
2019-02-07T19:18:05.603Z,1.20
2019-02-07T19:20:33.919Z,1.40
2019-02-07T19:23:02.398Z,1.20
2019-02-07T19:25:30.646Z,1.00
2019-02-07T19:27:59.317Z,1.00
2019-02-07T19:30:30.109Z,0.80
2019-02-07T19:32:58.434Z,0.77
2019-02-07T19:35:26.715Z,0.90
2019-02-07T19:37:54.973Z,0.83
2019-02-07T19:40:23.258Z,0.70
2019-02-07T19:42:51.694Z,1.10
2019-02-07T19:45:22.690Z,0.70
2019-02-07T19:47:50.968Z,0.97
2019-02-07T19:50:21.381Z,1.30
2019-02-07T19:52:50.060Z,1.57
2019-02-07T19:55:20.450Z,0.50
2019-02-07T19:57:48.767Z,1.10
2019-02-07T20:00:19.948Z,1.50
2019-02-07T20:02:48.204Z,0.80
2019-02-07T20:05:16.539Z,1.67
2019-02-07T20:07:44.954Z,0.90
2019-02-07T20:10:16.264Z,0.97
2019-02-07T20:12:44.663Z,0.90
2019-02-07T20:15:24.639Z,0.80
2019-02-07T20:17:52.954Z,1.03
2019-02-07T20:20:21.224Z,1.07
2019-02-07T20:22:49.556Z,1.27
2019-02-07T20:25:19.579Z,1.23
2019-02-07T20:27:47.927Z,1.00
2019-02-07T20:30:19.512Z,1.10
2019-02-07T20:32:47.871Z,1.10
2019-02-07T20:35:16.346Z,1.40
2019-02-07T20:37:44.652Z,0.80
2019-02-07T20:40:19.152Z,0.73
2019-02-07T20:42:47.598Z,0.97
2019-02-07T20:45:15.974Z,0.70
2019-02-07T20:47:44.402Z,0.90
2019-02-07T20:50:18.675Z,0.70
2019-02-07T20:52:47.071Z,1.70
2019-02-07T20:55:15.375Z,1.30
2019-02-07T20:57:43.950Z,1.87
2019-02-07T21:00:24.064Z,1.63
2019-02-07T21:02:52.322Z,2.13
2019-02-07T21:05:20.579Z,1.63
2019-02-07T21:07:48.951Z,1.67
2019-02-07T21:10:19.772Z,1.60
2019-02-07T21:12:48.166Z,2.30
2019-02-07T21:15:18.965Z,1.43
2019-02-07T21:17:48.059Z,2.27
2019-02-07T21:20:27.762Z,1.70
2019-02-07T21:22:56.735Z,1.80
2019-02-07T21:25:27.647Z,1.40
2019-02-07T21:27:56.012Z,1.33
2019-02-07T21:30:27.104Z,1.90
2019-02-07T21:32:55.470Z,2.13
2019-02-07T21:35:23.752Z,1.60
2019-02-07T21:37:52.198Z,1.93
2019-02-07T21:40:22.995Z,2.43
2019-02-07T21:42:53.215Z,1.67
2019-02-07T21:45:21.589Z,1.90
2019-02-07T21:47:50.278Z,1.80
2019-02-07T21:50:20.700Z,1.77
2019-02-07T21:52:49.619Z,1.83
2019-02-07T21:55:19.848Z,2.33
2019-02-07T21:57:48.111Z,2.03
2019-02-07T22:00:34.067Z,2.10
2019-02-07T22:03:02.359Z,2.03
2019-02-07T22:05:30.661Z,2.43
2019-02-07T22:07:58.928Z,2.23
2019-02-07T22:10:27.298Z,2.60
2019-02-07T22:12:55.612Z,2.50
2019-02-07T22:15:25.571Z,2.10
2019-02-07T22:17:53.935Z,2.20
2019-02-07T22:20:24.707Z,1.87
2019-02-07T22:22:53.025Z,1.80
2019-02-07T22:25:21.467Z,2.67
2019-02-07T22:27:49.842Z,2.10
2019-02-07T22:30:30.176Z,2.10
2019-02-07T22:32:58.659Z,1.70
2019-02-07T22:35:27.033Z,3.27
2019-02-07T22:37:55.310Z,2.50
2019-02-07T22:40:24.728Z,1.87
2019-02-07T22:42:53.061Z,2.50
2019-02-07T22:45:23.216Z,2.20
2019-02-07T22:47:51.617Z,1.80
2019-02-07T22:50:25.308Z,1.60
2019-02-07T22:52:57.065Z,1.80
2019-02-07T22:55:24.059Z,2.30
2019-02-07T22:57:53.342Z,1.40
2019-02-07T23:00:38.913Z,1.60
2019-02-07T23:03:15.590Z,1.47
2019-02-07T23:05:43.836Z,1.77
2019-02-07T23:08:12.332Z,1.63
2019-02-07T23:10:41.427Z,2.37
2019-02-07T23:13:09.847Z,1.63
2019-02-07T23:15:38.111Z,1.40
2019-02-07T23:18:08.038Z,2.23
2019-02-07T23:20:36.388Z,2.30
2019-02-07T23:23:07.543Z,2.17
2019-02-07T23:25:35.808Z,2.00
2019-02-07T23:28:04.206Z,1.30
2019-02-07T23:30:32.506Z,1.63
2019-02-07T23:33:00.767Z,2.20
2019-02-07T23:35:31.739Z,2.70
2019-02-07T23:38:00.096Z,3.03
2019-02-07T23:40:28.394Z,1.90
2019-02-07T23:42:57.086Z,2.63
2019-02-07T23:45:25.438Z,2.13
2019-02-07T23:47:53.717Z,2.83
2019-02-07T23:50:22.006Z,2.20
2019-02-07T23:52:50.255Z,2.00
2019-02-07T23:55:18.646Z,2.70
2019-02-07T23:57:46.998Z,2.60
